Time;durP1;ratioP1;P1;durP2;ratioP2;P2;SDS_P1;SDS_P2;PMS_P1;PMS_P2;Temp;Humidity;BMP_temperature;BMP_pressure;BME280_temperature;BME280_humidity;BME280_pressure;Samples;Min_cycle;Max_cycle;Signal;HPM_P1;HPM_P2
2022/07/03 00:00:45;;;;;;;7.30;5.00;;;;;;;12.74;75.76;100553.29;213843;1276;141150;-64
2022/07/03 00:05:48;;;;;;;10.80;6.50;;;;;;;12.79;75.79;100545.76;212965;1276;140244;-62
2022/07/03 00:10:51;;;;;;;10.00;5.50;;;;;;;12.91;76.39;100546.95;213560;1276;141036;-64
2022/07/03 00:15:55;;;;;;;6.40;5.30;;;;;;;12.88;76.29;100537.98;213500;1276;139491;-62
2022/07/03 00:21:04;;;;;;;8.00;6.00;;;;;;;12.86;76.44;100531.67;213339;1276;140892;-63
2022/07/03 00:26:09;;;;;;;8.80;6.70;;;;;;;12.87;76.84;100537.14;214095;1276;141614;-62
2022/07/03 00:31:13;;;;;;;11.30;10.00;;;;;;;12.91;76.99;100537.04;213787;1276;142598;-63
2022/07/03 00:36:20;;;;;;;11.00;9.50;;;;;;;12.99;77.49;100537.52;212966;1275;141691;-62
2022/07/03 00:41:27;;;;;;;11.20;9.60;;;;;;;13.09;77.82;100532.35;214155;1276;141841;-64
2022/07/03 00:46:30;;;;;;;22.90;11.60;;;;;;;13.15;77.66;100535.19;214293;1276;141974;-63
2022/07/03 00:51:37;;;;;;;15.40;9.30;;;;;;;13.15;77.99;100528.17;214106;1276;140663;-63
2022/07/03 00:56:46;;;;;;;16.70;11.50;;;;;;;13.19;77.83;100525.11;214664;1276;140185;-63
2022/07/03 01:02:01;;;;;;;14.50;11.10;;;;;;;13.25;78.01;100525.83;214999;1276;141948;-64
2022/07/03 01:07:17;;;;;;;13.20;10.00;;;;;;;13.43;78.56;100516.94;215456;1276;142736;-64
2022/07/03 01:12:37;;;;;;;19.10;11.80;;;;;;;13.59;78.47;100517.70;215685;1276;143006;-64
2022/07/03 01:17:58;;;;;;;19.80;11.00;;;;;;;13.71;78.35;100507.69;215840;1276;143271;-63
2022/07/03 01:23:09;;;;;;;12.90;9.60;;;;;;;13.78;78.27;100502.56;215335;1275;161890;-64
2022/07/03 01:28:14;;;;;;;17.20;10.10;;;;;;;13.76;78.31;100502.95;213718;1276;140928;-63
2022/07/03 01:33:20;;;;;;;18.70;11.40;;;;;;;13.81;78.50;100499.45;213765;1274;141754;-64
2022/07/03 01:38:26;;;;;;;17.50;11.40;;;;;;;13.88;78.59;100505.23;213195;1276;141844;-63
2022/07/03 01:43:37;;;;;;;25.20;9.40;;;;;;;13.97;78.87;100491.85;214099;1276;141193;-62
2022/07/03 01:48:44;;;;;;;19.50;7.90;;;;;;;13.99;78.67;100487.81;214713;1275;143012;-63
2022/07/03 01:53:48;;;;;;;12.10;7.30;;;;;;;13.94;78.60;100475.88;213158;1276;141835;-63
2022/07/03 01:58:52;;;;;;;12.50;9.60;;;;;;;13.95;78.63;100468.59;213323;1275;140451;-64
2022/07/03 02:04:16;;;;;;;14.20;7.50;;;;;;;13.89;78.31;100467.30;213869;1276;140735;-64
2022/07/03 02:09:26;;;;;;;16.20;7.90;;;;;;;13.79;77.67;100464.10;213846;1276;141162;-63
2022/07/03 02:14:35;;;;;;;20.40;7.10;;;;;;;13.70;77.67;100467.10;213656;1276;140600;-64
2022/07/03 02:19:57;;;;;;;13.40;8.20;;;;;;;13.62;77.73;100467.78;214252;1276;140822;-63
2022/07/03 02:25:06;;;;;;;10.40;7.60;;;;;;;13.52;77.86;100470.89;213236;1276;140564;-63
2022/07/03 02:30:10;;;;;;;15.30;8.70;;;;;;;13.48;77.52;100473.64;213580;1276;140274;-63
2022/07/03 02:35:29;;;;;;;14.10;7.80;;;;;;;13.43;77.64;100475.71;213118;1276;141207;-64
2022/07/03 02:40:39;;;;;;;23.50;8.20;;;;;;;13.41;77.75;100472.17;214770;1279;140084;-63
2022/07/03 02:45:55;;;;;;;7.00;6.20;;;;;;;13.44;78.02;100474.33;213278;1276;140143;-63
2022/07/03 02:51:04;;;;;;;11.20;7.30;;;;;;;13.44;77.53;100474.90;213743;1276;233352;-63
2022/07/03 02:56:27;;;;;;;18.10;7.80;;;;;;;13.35;77.52;100476.11;214780;1276;140870;-64
2022/07/03 03:01:33;;;;;;;12.80;6.40;;;;;;;13.30;77.95;100474.95;214196;1276;140276;-63
2022/07/03 03:06:38;;;;;;;8.60;7.30;;;;;;;13.28;78.12;100466.36;215921;1275;141641;-63
2022/07/03 03:11:45;;;;;;;8.90;7.10;;;;;;;13.31;78.41;100470.23;214944;1276;140103;-63
2022/07/03 03:16:50;;;;;;;;;;;;;;;13.50;78.95;100469.04;215909;1276;141873;-62
2022/07/03 03:22:18;;;;;;;10.30;9.20;;;;;;;13.71;79.01;100460.22;216327;1275;127296;-62
2022/07/03 03:27:21;;;;;;;16.40;8.70;;;;;;;13.98;79.12;100454.77;214657;1276;140743;-61
2022/07/03 03:32:26;;;;;;;15.90;8.20;;;;;;;14.24;79.03;100450.91;214964;1276;140420;-64
2022/07/03 03:37:30;;;;;;;11.60;7.90;;;;;;;14.37;78.71;100455.60;214078;1274;141526;-63
2022/07/03 03:42:33;;;;;;;8.50;6.40;;;;;;;14.53;79.10;100460.61;213232;1276;141328;-62
2022/07/03 03:47:36;;;;;;;7.50;6.80;;;;;;;14.83;78.98;100460.23;213864;1276;141926;-64
2022/07/03 03:52:44;;;;;;;10.10;6.70;;;;;;;15.41;78.61;100459.35;213034;1276;140846;-65
2022/07/03 03:57:46;;;;;;;9.50;7.00;;;;;;;15.47;78.31;100460.40;213955;1276;140321;-63
2022/07/03 04:02:50;;;;;;;6.60;6.10;;;;;;;15.55;78.17;100463.93;214436;1276;140674;-64
2022/07/03 04:07:52;;;;;;;12.40;7.20;;;;;;;15.57;78.51;100462.70;213921;1276;139324;-65
2022/07/03 04:12:55;;;;;;;8.50;7.30;;;;;;;15.70;78.74;100458.77;213037;1276;140692;-65
2022/07/03 04:17:59;;;;;;;18.70;7.80;;;;;;;15.99;79.18;100457.33;213618;1276;140705;-65
2022/07/03 04:23:02;;;;;;;7.40;6.30;;;;;;;16.38;78.97;100459.17;213334;1276;140097;-64
2022/07/03 04:28:05;;;;;;;14.40;7.20;;;;;;;16.87;79.04;100464.92;213984;1276;140182;-65
2022/07/03 04:33:24;;;;;;;11.50;6.30;;;;;;;17.31;78.94;100466.19;213322;1276;139864;-65
2022/07/03 04:38:27;;;;;;;6.50;6.00;;;;;;;17.58;78.49;100459.20;212661;1276;139568;-63
2022/07/03 04:43:31;;;;;;;6.80;5.00;;;;;;;18.02;77.80;100458.02;214659;1276;141101;-65
2022/07/03 04:48:35;;;;;;;7.50;5.30;;;;;;;19.07;76.59;100452.93;213207;1276;223717;-64
2022/07/03 04:53:38;;;;;;;9.60;4.70;;;;;;;20.85;74.56;100454.38;214367;1276;139598;-65
2022/07/03 04:58:41;;;;;;;6.10;4.40;;;;;;;22.40;72.79;100450.66;215941;1276;141342;-63
2022/07/03 05:03:44;;;;;;;6.50;4.40;;;;;;;22.80;70.94;100451.38;215920;1276;140837;-65
2022/07/03 05:08:47;;;;;;;4.10;3.70;;;;;;;23.31;69.32;100457.79;215623;1276;140601;-64
2022/07/03 05:13:49;;;;;;;4.00;3.60;;;;;;;25.72;65.64;100462.70;215610;1277;140187;-66
2022/07/03 05:18:52;;;;;;;3.50;3.20;;;;;;;28.55;62.34;100464.52;214590;1276;159627;-64
2022/07/03 05:23:55;;;;;;;2.90;2.70;;;;;;;29.30;59.73;100463.77;213778;1279;139996;-64
2022/07/03 05:28:58;;;;;;;2.30;2.10;;;;;;;33.28;55.17;100469.95;213719;1276;140131;-64
2022/07/03 05:34:01;;;;;;;3.20;1.70;;;;;;;35.38;51.05;100480.14;214062;1276;140061;-64
2022/07/03 05:44:24;;;;;;;3.30;2.40;;;;;;;32.94;48.70;100465.02;214865;1276;139610;-63
2022/07/03 05:49:27;;;;;;;3.70;2.10;;;;;;;32.53;47.91;100458.42;213967;1276;139899;-64
2022/07/03 05:54:30;;;;;;;2.00;1.40;;;;;;;33.47;46.55;100454.67;214183;1276;141078;-63
2022/07/03 05:59:33;;;;;;;1.80;1.70;;;;;;;35.02;44.87;100452.48;213283;1276;139684;-65
2022/07/03 06:04:36;;;;;;;1.80;1.70;;;;;;;35.88;43.06;100451.77;212651;1276;139774;-65
2022/07/03 06:09:39;;;;;;;2.10;1.50;;;;;;;35.97;41.32;100449.35;214301;1276;139646;-64
2022/07/03 06:14:42;;;;;;;1.60;1.20;;;;;;;36.93;40.03;100442.63;213573;1276;139512;-64
2022/07/03 06:19:44;;;;;;;3.10;1.40;;;;;;;38.82;37.83;100443.09;213395;1276;140495;-66
2022/07/03 06:24:47;;;;;;;2.20;1.20;;;;;;;40.44;35.95;100445.05;213437;1276;373173;-64
2022/07/03 06:29:50;;;;;;;1.80;0.90;;;;;;;41.06;34.19;100442.59;213093;1277;139588;-64
2022/07/03 06:34:54;;;;;;;3.20;0.90;;;;;;;41.89;32.74;100439.79;213628;1276;138879;-65
2022/07/03 06:39:58;;;;;;;6.10;1.20;;;;;;;42.58;30.96;100437.52;214938;1276;141901;-66
2022/07/03 06:45:02;;;;;;;0.60;0.60;;;;;;;43.08;30.11;100437.90;215157;1276;139952;-65
2022/07/03 06:50:07;;;;;;;2.70;1.00;;;;;;;43.89;28.57;100429.39;213512;1276;139289;-65
2022/07/03 06:55:10;;;;;;;3.20;1.00;;;;;;;44.33;27.42;100424.48;214576;1276;139941;-66
2022/07/03 07:00:13;;;;;;;2.90;0.80;;;;;;;44.09;26.44;100427.52;215671;1276;140449;-66
2022/07/03 07:05:18;;;;;;;1.60;0.70;;;;;;;43.70;25.80;100422.34;215802;1276;140613;-65
2022/07/03 07:10:22;;;;;;;2.80;0.70;;;;;;;42.59;25.75;100406.98;215055;1276;140593;-67
2022/07/03 07:15:24;;;;;;;2.10;1.30;;;;;;;42.99;25.51;100403.37;214129;1276;140570;-66
2022/07/03 07:20:27;;;;;;;1.30;1.00;;;;;;;42.67;25.04;100392.78;214467;1276;139789;-66
2022/07/03 07:25:33;;;;;;;1.80;1.10;;;;;;;42.07;24.79;100388.27;214485;1276;139665;-68
2022/07/03 07:30:38;;;;;;;1.90;0.90;;;;;;;40.70;25.29;100375.27;214716;1276;141748;-67
2022/07/03 07:35:41;;;;;;;1.10;0.80;;;;;;;39.73;25.55;100375.42;214446;1276;140094;-67
2022/07/03 07:40:44;;;;;;;7.40;1.10;;;;;;;38.82;26.03;100378.16;214349;1276;142738;-66
2022/07/03 07:45:49;;;;;;;5.50;1.40;;;;;;;38.09;26.59;100374.64;213034;1277;153802;-65
2022/07/03 07:50:53;;;;;;;0.70;0.70;;;;;;;37.17;26.43;100376.66;213957;1276;139599;-66
2022/07/03 07:55:57;;;;;;;0.80;0.80;;;;;;;36.12;26.57;100371.54;214170;1276;139764;-65
2022/07/03 08:06:21;;;;;;;0.60;0.60;;;;;;;34.96;27.81;100360.27;213130;1276;139621;-64
2022/07/03 08:11:24;;;;;;;1.70;1.10;;;;;;;34.39;28.66;100354.77;212745;1276;139493;-64
2022/07/03 08:16:27;;;;;;;2.50;1.00;;;;;;;34.04;28.66;100349.39;213867;1276;139804;-64
2022/07/03 08:21:30;;;;;;;2.60;0.80;;;;;;;33.52;29.08;100345.82;214272;1276;140210;-67
2022/07/03 08:26:34;;;;;;;1.60;1.20;;;;;;;32.88;30.21;100345.56;213346;1277;140054;-66
2022/07/03 08:31:48;;;;;;;1.50;1.00;;;;;;;32.73;30.39;100343.80;214259;1276;140514;-66
2022/07/03 08:36:58;;;;;;;1.20;0.60;;;;;;;32.33;30.90;100336.56;213064;1277;141287;-65
2022/07/03 08:42:15;;;;;;;1.20;1.10;;;;;;;32.25;31.17;100328.20;214210;1277;140449;-64
2022/07/03 08:47:28;;;;;;;1.60;1.00;;;;;;;32.20;31.56;100325.49;214756;1277;140496;-67
2022/07/03 08:52:36;;;;;;;2.50;1.10;;;;;;;31.63;31.33;100320.24;213935;1277;140163;-65
2022/07/03 08:57:49;;;;;;;1.40;1.10;;;;;;;31.31;31.68;100320.26;215503;1277;139712;-66
2022/07/03 09:02:57;;;;;;;1.10;1.10;;;;;;;31.17;32.38;100325.31;215884;1276;160890;-65
2022/07/03 09:08:09;;;;;;;1.60;1.10;;;;;;;31.22;32.88;100317.31;215900;1277;139667;-67
2022/07/03 09:13:20;;;;;;;1.20;1.10;;;;;;;31.25;32.68;100313.27;215742;1277;140826;-68
2022/07/03 09:18:42;;;;;;;3.20;1.10;;;;;;;31.30;32.27;100313.30;215190;1277;140722;-67
2022/07/03 09:23:47;;;;;;;5.50;1.90;;;;;;;31.52;32.98;100311.41;214276;1277;163185;-64
2022/07/03 09:28:52;;;;;;;0.70;0.70;;;;;;;31.52;32.92;100309.70;213982;1277;142045;-65
2022/07/03 09:34:00;;;;;;;1.00;0.90;;;;;;;31.33;32.26;100307.64;213660;1277;141428;-65
2022/07/03 09:39:13;;;;;;;1.40;1.00;;;;;;;30.72;31.96;100312.54;212930;1277;140776;-64
2022/07/03 09:44:33;;;;;;;1.10;0.90;;;;;;;30.34;32.84;100308.05;213306;1277;139997;-66
2022/07/03 09:49:57;;;;;;;1.30;1.20;;;;;;;29.91;32.78;100304.73;214240;1277;140386;-65
2022/07/03 09:55:10;;;;;;;3.20;1.20;;;;;;;29.54;33.56;100298.18;213657;1277;141014;-65
2022/07/03 10:00:16;;;;;;;1.30;1.20;;;;;;;29.71;33.89;100293.11;213561;1277;143293;-64
2022/07/03 10:05:21;;;;;;;0.80;0.80;;;;;;;30.27;34.09;100289.71;212999;1277;139918;-65
2022/07/03 10:10:31;;;;;;;1.30;1.30;;;;;;;30.74;34.64;100283.29;214055;1277;139799;-64
2022/07/03 10:15:37;;;;;;;2.00;1.40;;;;;;;30.54;33.87;100272.64;212937;1277;140148;-65
2022/07/03 10:20:46;;;;;;;1.10;1.00;;;;;;;30.65;32.87;100270.01;213435;1277;151368;-64
2022/07/03 10:25:49;;;;;;;1.80;1.20;;;;;;;30.43;32.53;100262.85;213923;1276;139730;-65
2022/07/03 10:30:55;;;;;;;3.60;1.40;;;;;;;30.50;33.11;100259.17;214559;1276;140075;-65
2022/07/03 10:35:59;;;;;;;2.30;0.90;;;;;;;30.08;33.25;100264.22;213319;1277;140400;-64
2022/07/03 10:46:47;;;;;;;3.80;1.40;;;;;;;29.90;34.02;100246.13;215717;1276;140035;-65
2022/07/03 10:51:57;;;;;;;2.50;1.70;;;;;;;29.99;34.06;100236.02;214262;1276;138879;-64
2022/07/03 10:57:03;;;;;;;1.80;1.30;;;;;;;29.89;34.71;100230.89;215522;1276;140281;-65
2022/07/03 11:02:32;;;;;;;1.80;1.40;;;;;;;29.75;34.13;100226.80;214517;1276;140668;-64
2022/07/03 11:07:54;;;;;;;1.00;1.00;;;;;;;29.84;34.38;100220.30;215746;1276;141205;-64
2022/07/03 11:13:03;;;;;;;1.60;1.30;;;;;;;29.93;34.33;100212.45;214019;1276;140282;-64
2022/07/03 11:18:10;;;;;;;1.30;1.20;;;;;;;29.74;33.79;100212.09;213880;1276;140016;-64
2022/07/03 11:23:19;;;;;;;2.10;1.20;;;;;;;29.15;34.46;100209.23;213513;1276;140177;-64
2022/07/03 11:28:33;;;;;;;1.60;1.50;;;;;;;29.44;34.94;100200.42;214516;1276;141326;-63
2022/07/03 11:33:47;;;;;;;2.70;1.20;;;;;;;29.81;34.36;100197.67;214363;1276;162887;-64
2022/07/03 11:39:00;;;;;;;1.40;1.30;;;;;;;30.13;33.86;100192.41;213758;1276;139644;-64
2022/07/03 11:44:05;;;;;;;1.20;0.80;;;;;;;30.16;33.86;100193.67;214251;1276;139943;-64
2022/07/03 11:49:09;;;;;;;;;;;;;;;30.10;33.73;100195.08;213625;1276;140339;-65
2022/07/03 11:54:13;;;;;;;1.70;1.10;;;;;;;30.04;34.37;100190.90;213765;1276;125825;-64
2022/07/03 11:59:16;;;;;;;0.90;0.90;;;;;;;30.18;34.25;100188.23;213986;1276;142386;-64
2022/07/03 12:04:28;;;;;;;2.60;1.30;;;;;;;29.82;33.93;100178.95;213865;1276;140569;-64
2022/07/03 12:09:34;;;;;;;2.10;1.60;;;;;;;29.33;34.06;100174.77;213065;1276;140473;-64
2022/07/03 12:14:43;;;;;;;1.70;1.20;;;;;;;29.24;34.63;100167.20;213612;1276;139231;-65
2022/07/03 12:19:51;;;;;;;3.40;1.20;;;;;;;29.43;34.47;100162.48;212979;1277;140153;-64
2022/07/03 12:25:03;;;;;;;2.50;1.10;;;;;;;29.53;34.48;100148.27;214594;1277;141492;-65
2022/07/03 12:30:09;;;;;;;1.20;1.20;;;;;;;29.53;34.46;100143.78;213877;1276;141263;-65
2022/07/03 12:35:12;;;;;;;1.40;1.30;;;;;;;29.22;34.59;100145.42;213271;1276;140697;-64
2022/07/03 12:40:15;;;;;;;1.30;1.20;;;;;;;28.97;34.96;100139.85;213413;1276;140640;-65
2022/07/03 12:45:28;;;;;;;1.20;1.20;;;;;;;29.23;35.19;100141.45;215634;1276;150854;-66
2022/07/03 12:50:54;;;;;;;0.90;0.90;;;;;;;29.40;35.47;100137.13;214795;1276;139932;-65
2022/07/03 12:56:05;;;;;;;0.90;0.90;;;;;;;29.14;34.48;100140.73;214434;1276;140609;-65
2022/07/03 13:01:28;;;;;;;1.30;1.20;;;;;;;28.85;35.26;100136.98;213218;1277;140751;-64
2022/07/03 13:06:32;;;;;;;2.10;1.30;;;;;;;28.46;35.65;100140.88;214380;1277;141120;-65
2022/07/03 13:11:41;;;;;;;2.20;1.60;;;;;;;28.74;35.33;100139.61;212846;1276;140895;-64
2022/07/03 13:16:45;;;;;;;1.30;1.20;;;;;;;29.04;35.30;100125.39;214206;1276;140960;-64
2022/07/03 13:21:49;;;;;;;3.10;1.80;;;;;;;29.16;35.34;100112.94;213945;1276;140187;-64
2022/07/03 13:26:54;;;;;;;1.70;1.60;;;;;;;29.27;34.75;100103.75;213428;1276;140095;-63
2022/07/03 13:31:57;;;;;;;3.10;1.40;;;;;;;29.03;34.84;100105.36;214017;1276;140270;-63
2022/07/03 13:37:01;;;;;;;1.60;1.40;;;;;;;28.87;35.23;100101.45;213770;1275;139664;-63
2022/07/03 13:42:05;;;;;;;1.70;1.60;;;;;;;28.91;35.84;100096.48;213379;1277;140566;-62
2022/07/03 13:47:07;;;;;;;1.30;1.20;;;;;;;28.82;35.14;100094.88;213427;1275;142273;-64
2022/07/03 13:52:10;;;;;;;1.80;1.60;;;;;;;28.75;35.28;100099.52;213765;1276;140339;-62
2022/07/03 13:57:14;;;;;;;1.70;1.60;;;;;;;28.59;35.07;100093.79;213990;1276;139501;-62
2022/07/03 14:02:17;;;;;;;3.20;1.30;;;;;;;28.26;35.39;100086.10;214401;1276;139910;-62
2022/07/03 14:07:21;;;;;;;2.30;1.20;;;;;;;28.34;36.28;100084.81;213176;1276;139510;-62
2022/07/03 14:12:25;;;;;;;1.30;1.20;;;;;;;28.48;35.70;100077.39;213878;1277;139720;-64
2022/07/03 14:17:28;;;;;;;1.40;1.30;;;;;;;28.56;35.61;100076.61;213338;1276;140334;-64
2022/07/03 14:22:31;;;;;;;1.30;1.20;;;;;;;28.69;35.40;100081.86;213189;1276;139997;-63
2022/07/03 14:32:56;;;;;;;1.00;1.00;;;;;;;28.86;35.10;100065.05;215042;1276;140137;-64
2022/07/03 14:38:00;;;;;;;2.40;1.30;;;;;;;28.80;35.46;100057.02;215977;1276;140873;-64
2022/07/03 14:43:03;;;;;;;1.20;1.20;;;;;;;28.75;35.04;100049.59;215702;1276;139870;-64
2022/07/03 14:48:06;;;;;;;3.70;1.10;;;;;;;28.57;35.36;100053.45;215584;1276;141685;-64
2022/07/03 14:53:09;;;;;;;2.40;1.40;;;;;;;28.42;36.03;100053.77;215042;1276;140796;-64
2022/07/03 14:58:22;;;;;;;1.40;1.20;;;;;;;28.44;36.17;100050.64;215516;1274;141043;-65
2022/07/03 15:03:32;;;;;;;1.10;1.10;;;;;;;28.44;35.94;100045.30;213081;1276;141741;-63
2022/07/03 15:08:43;;;;;;;3.80;1.70;;;;;;;28.34;35.81;100039.44;214357;1275;140782;-64
2022/07/03 15:13:46;;;;;;;1.50;1.30;;;;;;;28.39;36.14;100036.80;213414;1272;140274;-64
2022/07/03 15:18:50;;;;;;;1.40;1.40;;;;;;;28.40;35.82;100034.69;217762;1268;139491;-64
2022/07/03 15:23:53;;;;;;;1.40;1.10;;;;;;;28.34;36.20;100027.00;212460;1279;140119;-64
2022/07/03 15:28:59;;;;;;;1.40;1.30;;;;;;;28.23;35.79;100018.20;213048;1279;221447;-65
2022/07/03 15:34:06;;;;;;;1.70;1.00;;;;;;;28.19;36.60;100014.05;212958;1279;140471;-64
2022/07/03 15:39:18;;;;;;;1.50;1.40;;;;;;;28.13;36.59;100009.33;213068;1279;143479;-65
2022/07/03 15:44:36;;;;;;;2.30;1.50;;;;;;;27.94;36.82;100012.27;213075;1279;141697;-64
2022/07/03 15:49:43;;;;;;;2.30;1.20;;;;;;;27.80;36.97;100001.20;212862;1279;141859;-64
2022/07/03 15:55:02;;;;;;;2.10;1.50;;;;;;;27.77;37.16;99999.70;212871;1279;141750;-64
2022/07/03 16:00:12;;;;;;;3.00;1.60;;;;;;;27.72;37.09;99997.73;212904;1279;230709;-65
2022/07/03 16:05:25;;;;;;;1.50;1.40;;;;;;;27.71;37.35;100004.73;213252;1279;140606;-62
2022/07/03 16:10:32;;;;;;;1.80;0.80;;;;;;;27.64;37.13;100005.44;212871;1279;140427;-64
2022/07/03 16:15:45;;;;;;;2.00;1.70;;;;;;;27.57;37.64;99998.95;212907;1279;141666;-64
2022/07/03 16:20:50;;;;;;;3.00;1.50;;;;;;;27.55;37.51;99996.17;213414;1279;141500;-65
2022/07/03 16:25:56;;;;;;;1.70;1.40;;;;;;;27.55;37.42;99994.40;213728;1281;142129;-65
2022/07/03 16:31:04;;;;;;;18.20;1.90;;;;;;;27.54;37.82;100002.19;214912;1281;141525;-66
2022/07/03 16:36:14;;;;;;;1.50;1.40;;;;;;;27.53;37.82;99996.05;215086;1280;143303;-65
2022/07/03 16:41:23;;;;;;;1.70;1.60;;;;;;;27.50;38.15;99985.80;214696;1282;162488;-65
2022/07/03 16:46:31;;;;;;;1.60;1.40;;;;;;;27.39;38.03;99981.98;215003;1281;140256;-65
2022/07/03 16:51:35;;;;;;;3.40;1.20;;;;;;;27.27;37.93;99985.98;214898;1280;140934;-63
2022/07/03 16:56:38;;;;;;;1.40;1.30;;;;;;;27.23;37.98;99985.20;213172;1281;139311;-64
2022/07/03 17:01:44;;;;;;;3.70;1.90;;;;;;;27.17;38.09;99980.26;212502;1281;139285;-64
2022/07/03 17:06:47;;;;;;;1.80;1.50;;;;;;;27.11;38.43;99974.42;212501;1282;141431;-64
2022/07/03 17:11:51;;;;;;;1.10;1.10;;;;;;;27.04;38.51;99975.91;212578;1282;141624;-64
2022/07/03 17:17:00;;;;;;;2.50;1.30;;;;;;;26.92;38.75;99973.42;212778;1281;140720;-66
2022/07/03 17:22:07;;;;;;;2.10;1.40;;;;;;;26.76;39.08;99962.92;212417;1282;140443;-64
2022/07/03 17:27:31;;;;;;;12.10;2.10;;;;;;;26.55;39.46;99962.65;212724;1280;140718;-63
2022/07/03 17:32:41;;;;;;;1.50;1.40;;;;;;;26.36;39.53;99961.87;212844;1281;164341;-63
2022/07/03 17:37:47;;;;;;;1.30;1.30;;;;;;;26.19;40.05;99962.95;212657;1282;140090;-63
2022/07/03 17:42:52;;;;;;;2.00;1.40;;;;;;;25.98;40.56;99963.70;212557;1282;140460;-66
2022/07/03 17:47:58;;;;;;;1.60;1.50;;;;;;;25.76;40.73;99959.52;212601;1282;139874;-64
2022/07/03 17:53:12;;;;;;;2.00;1.60;;;;;;;25.58;41.35;99959.98;212650;1282;140683;-64
2022/07/03 17:58:17;;;;;;;4.60;1.70;;;;;;;25.34;41.62;99965.66;212705;1281;142100;-64
2022/07/03 18:03:22;;;;;;;4.00;1.90;;;;;;;25.13;42.41;99957.74;212800;1281;151204;-64
2022/07/03 18:08:40;;;;;;;1.60;1.50;;;;;;;24.92;43.04;99958.89;212558;1282;142676;-64
2022/07/03 18:13:50;;;;;;;2.70;1.60;;;;;;;24.70;43.94;99965.50;212344;1282;140682;-66
2022/07/03 18:18:58;;;;;;;5.60;1.40;;;;;;;24.45;44.61;99961.67;213123;1282;141551;-65
2022/07/03 18:24:03;;;;;;;2.70;1.00;;;;;;;24.18;45.34;99957.54;214628;1281;399601;-65
2022/07/03 18:29:07;;;;;;;1.20;1.20;;;;;;;23.94;46.13;99953.85;214948;1282;139323;-65
2022/07/03 18:34:10;;;;;;;3.50;1.70;;;;;;;23.71;46.78;99961.85;214604;1282;139926;-65
2022/07/03 18:39:13;;;;;;;4.70;2.10;;;;;;;23.48;47.46;99964.64;214754;1281;139701;-66
2022/07/03 18:44:16;;;;;;;3.20;1.60;;;;;;;23.28;48.10;99963.71;214720;1281;140219;-66
2022/07/03 18:49:19;;;;;;;3.30;1.90;;;;;;;23.09;48.62;99968.29;214313;1282;141086;-65
2022/07/03 18:54:33;;;;;;;3.30;1.50;;;;;;;22.89;49.18;99973.88;213105;1281;139566;-65
2022/07/03 18:59:46;;;;;;;1.70;1.60;;;;;;;22.68;49.92;99983.13;212797;1281;140220;-65
2022/07/03 19:04:52;;;;;;;1.80;1.70;;;;;;;22.44;50.73;99990.33;212949;1281;139542;-64
2022/07/03 19:10:10;;;;;;;2.00;1.90;;;;;;;22.20;51.57;99997.18;212731;1281;140008;-65
2022/07/03 19:15:22;;;;;;;2.20;1.60;;;;;;;21.95;52.43;99996.70;212654;1281;205626;-66
2022/07/03 19:20:27;;;;;;;3.80;2.00;;;;;;;21.73;53.10;100004.10;212541;1283;141422;-66
2022/07/03 19:25:31;;;;;;;2.10;2.00;;;;;;;21.48;53.43;100001.83;212658;1284;139598;-65
2022/07/03 19:30:35;;;;;;;2.40;1.90;;;;;;;21.22;53.78;100003.04;212544;1284;140387;-67
2022/07/03 19:35:39;;;;;;;4.30;2.10;;;;;;;20.94;54.35;100009.64;212414;1284;140300;-65
2022/07/03 19:40:43;;;;;;;2.50;2.10;;;;;;;20.60;55.20;100010.78;213062;1280;142154;-64
2022/07/03 19:45:56;;;;;;;3.10;2.60;;;;;;;20.26;55.89;100012.92;212982;1280;140811;-67
2022/07/03 19:51:03;;;;;;;2.10;2.00;;;;;;;20.10;56.44;100012.93;212769;1281;141000;-65
2022/07/03 19:56:10;;;;;;;1.70;1.60;;;;;;;19.99;56.76;100013.50;212768;1281;142225;-64
2022/07/03 20:01:20;;;;;;;8.80;3.30;;;;;;;19.88;57.23;100011.95;212836;1281;140626;-67
2022/07/03 20:06:24;;;;;;;3.40;2.60;;;;;;;19.77;57.82;100005.55;212868;1281;140076;-64
2022/07/03 20:11:27;;;;;;;3.90;2.80;;;;;;;19.65;58.18;100009.64;212806;1281;141209;-66
2022/07/03 20:16:30;;;;;;;2.80;2.20;;;;;;;19.44;58.57;100007.95;212726;1281;140717;-66
2022/07/03 20:21:36;;;;;;;3.50;2.60;;;;;;;19.27;58.94;100010.77;214760;1281;141488;-65
2022/07/03 20:26:42;;;;;;;4.80;2.90;;;;;;;19.16;59.17;100016.60;214789;1280;141927;-65
2022/07/03 20:31:50;;;;;;;2.60;2.40;;;;;;;19.06;59.59;100013.98;214963;1280;140970;-65
2022/07/03 20:36:55;;;;;;;3.00;2.80;;;;;;;18.98;59.69;100014.64;214860;1280;141577;-65
2022/07/03 20:42:01;;;;;;;3.00;2.80;;;;;;;18.90;59.94;100021.48;214822;1281;140139;-64
2022/07/03 20:47:04;;;;;;;3.50;2.40;;;;;;;18.83;60.26;100024.45;214724;1282;142528;-64
2022/07/03 20:52:08;;;;;;;3.90;2.50;;;;;;;18.76;60.71;100022.00;213083;1281;141202;-64
2022/07/03 20:57:13;;;;;;;5.50;2.90;;;;;;;18.64;60.75;100022.09;212991;1281;141510;-65
2022/07/03 21:02:16;;;;;;;2.40;2.30;;;;;;;18.46;61.23;100025.36;212620;1282;141164;-64
2022/07/03 21:07:20;;;;;;;4.90;2.80;;;;;;;18.36;61.79;100028.34;213026;1281;141616;-64
2022/07/03 21:12:26;;;;;;;;;;;;;;;18.27;62.20;100026.67;212969;1281;141244;-65
2022/07/03 21:17:29;;;;;;;2.30;2.20;;;;;;;18.19;62.28;100029.40;213456;1282;127384;-65
2022/07/03 21:22:33;;;;;;;2.70;2.50;;;;;;;18.16;62.57;100028.17;212665;1282;139758;-67
2022/07/03 21:27:36;;;;;;;3.40;3.20;;;;;;;18.08;62.58;100026.11;212862;1281;140213;-65
2022/07/03 21:32:39;;;;;;;3.20;2.90;;;;;;;17.95;62.72;100023.70;212919;1281;139504;-65
2022/07/03 21:37:42;;;;;;;7.00;3.80;;;;;;;17.73;63.12;100023.02;212900;1281;142708;-65
2022/07/03 21:42:47;;;;;;;3.30;3.10;;;;;;;17.59;63.55;100021.58;212652;1282;141821;-64
2022/07/03 21:47:49;;;;;;;3.70;3.40;;;;;;;17.53;63.81;100019.80;212836;1281;140684;-65
2022/07/03 21:52:53;;;;;;;10.60;4.00;;;;;;;17.46;64.12;100020.09;212888;1282;140927;-65
2022/07/03 21:57:57;;;;;;;6.50;3.70;;;;;;;17.35;64.18;100017.00;212405;1282;141225;-65
2022/07/03 22:03:00;;;;;;;3.50;3.20;;;;;;;17.09;64.46;100012.92;212871;1281;152990;-65
2022/07/03 22:08:07;;;;;;;4.00;3.10;;;;;;;16.96;65.13;100007.50;212600;1281;163648;-66
2022/07/03 22:13:16;;;;;;;3.80;3.30;;;;;;;16.92;65.46;100002.43;212889;1281;141754;-66
2022/07/03 22:18:20;;;;;;;3.70;3.40;;;;;;;16.88;65.55;100004.10;212630;1281;141432;-66
2022/07/03 22:23:23;;;;;;;4.60;4.10;;;;;;;16.71;65.71;100002.38;213660;1281;140446;-66
2022/07/03 22:28:26;;;;;;;7.30;3.80;;;;;;;16.65;66.18;99998.83;214736;1281;140243;-66
2022/07/03 22:33:32;;;;;;;;;;;;;;;16.66;66.33;99991.61;214729;1279;140745;-65
2022/07/03 22:38:36;;;;;;;8.80;4.30;;;;;;;16.66;66.50;99992.15;215288;1281;127363;-65
2022/07/03 22:43:39;;;;;;;4.50;4.10;;;;;;;16.59;66.49;99982.22;214689;1281;140347;-66
2022/07/03 22:48:43;;;;;;;3.90;3.50;;;;;;;16.39;66.68;99973.58;213058;1281;140706;-65
2022/07/03 22:53:46;;;;;;;4.80;4.00;;;;;;;16.25;66.95;99968.81;212887;1282;141125;-66
2022/07/03 22:58:50;;;;;;;3.30;3.00;;;;;;;16.13;67.21;99968.70;212851;1282;140310;-66
2022/07/03 23:03:53;;;;;;;5.50;3.40;;;;;;;16.15;67.69;99965.96;212794;1281;140500;-65
2022/07/03 23:08:56;;;;;;;3.90;3.60;;;;;;;16.13;67.71;99959.55;212675;1281;139977;-65
2022/07/03 23:14:00;;;;;;;4.40;3.90;;;;;;;15.96;68.09;99958.79;212815;1282;139643;-66
2022/07/03 23:19:03;;;;;;;3.60;3.30;;;;;;;15.74;68.46;99956.73;212862;1281;139488;-65
2022/07/03 23:24:06;;;;;;;4.20;3.80;;;;;;;15.60;68.88;99951.79;212715;1282;140161;-65
2022/07/03 23:29:10;;;;;;;7.40;4.10;;;;;;;15.50;68.95;99946.61;212795;1281;141109;-65
2022/07/03 23:34:14;;;;;;;11.40;4.40;;;;;;;15.39;69.29;99945.64;212785;1281;141772;-65